createdAt,value
2022-10-29T00:01:15.622Z,1.75
2022-10-29T00:03:42.330Z,1.77
2022-10-29T00:06:11.864Z,1.73
2022-10-29T00:08:39.901Z,2.45
2022-10-29T00:11:21.121Z,1.73
2022-10-29T00:13:52.802Z,1.33
2022-10-29T00:16:21.753Z,2.05
2022-10-29T00:18:48.457Z,2.28
2022-10-29T00:21:20.751Z,1.23
2022-10-29T00:23:47.940Z,1.70
2022-10-29T00:26:16.183Z,1.35
2022-10-29T00:28:43.309Z,1.40
2022-10-29T00:31:15.485Z,1.13
2022-10-29T00:33:43.184Z,2.13
2022-10-29T00:36:14.089Z,1.65
2022-10-29T00:38:40.893Z,1.90
2022-10-29T00:41:10.738Z,1.52
2022-10-29T00:43:39.024Z,0.93
2022-10-29T00:46:10.421Z,1.52
2022-10-29T00:48:43.671Z,1.60
2022-10-29T00:51:13.280Z,2.20
2022-10-29T00:53:47.055Z,1.02
2022-10-29T00:56:14.138Z,1.35
2022-10-29T00:58:42.026Z,1.80
2022-10-29T01:01:08.824Z,1.70
2022-10-29T01:03:35.464Z,1.48
2022-10-29T01:06:03.696Z,2.42
2022-10-29T01:08:30.314Z,1.75
2022-10-29T01:11:15.242Z,2.50
2022-10-29T01:14:17.943Z,1.85
2022-10-29T01:17:00.345Z,1.77
2022-10-29T01:20:07.938Z,1.27
2022-10-29T01:22:48.346Z,2.13
2022-10-29T01:25:57.019Z,1.77
2022-10-29T01:28:54.413Z,2.05
2022-10-29T01:31:24.009Z,2.28
2022-10-29T01:34:04.450Z,1.70
2022-10-29T01:36:54.810Z,1.38
2022-10-29T01:39:31.633Z,1.20
2022-10-29T01:42:03.832Z,1.55
2022-10-29T01:44:39.665Z,1.60
2022-10-29T01:47:13.844Z,1.50
2022-10-29T01:49:43.515Z,1.63
2022-10-29T01:52:14.601Z,1.83
2022-10-29T01:54:46.502Z,1.73
2022-10-29T01:57:32.924Z,1.90
2022-10-29T02:00:09.730Z,1.48
2022-10-29T02:03:02.428Z,2.75
2022-10-29T02:05:38.281Z,2.30
2022-10-29T02:08:26.660Z,1.55
2022-10-29T02:11:24.134Z,2.72
2022-10-29T02:13:57.294Z,1.90
2022-10-29T02:16:25.958Z,2.72
2022-10-29T02:18:53.398Z,1.95
2022-10-29T02:21:20.754Z,1.67
2022-10-29T02:23:47.897Z,2.20
2022-10-29T02:26:14.595Z,2.03
2022-10-29T02:28:41.150Z,1.70
2022-10-29T02:31:08.378Z,2.60
2022-10-29T02:33:35.011Z,1.73
2022-10-29T02:36:01.710Z,2.35
2022-10-29T02:38:28.300Z,2.45
2022-10-29T02:40:54.972Z,2.20
2022-10-29T02:43:21.672Z,1.73
2022-10-29T02:45:48.329Z,1.77
2022-10-29T02:48:14.892Z,2.78
2022-10-29T02:50:41.453Z,1.83
2022-10-29T02:53:08.061Z,2.05
2022-10-29T02:55:34.744Z,1.95
2022-10-29T02:58:01.315Z,2.10
2022-10-29T03:00:27.887Z,2.20
2022-10-29T03:02:54.769Z,1.63
2022-10-29T03:05:21.629Z,2.03
2022-10-29T03:07:48.178Z,3.22
2022-10-29T03:10:14.950Z,1.75
2022-10-29T03:12:41.527Z,3.05
2022-10-29T03:15:08.584Z,1.35
2022-10-29T03:17:35.162Z,1.67
2022-10-29T03:20:01.933Z,1.75
2022-10-29T03:22:28.504Z,2.50
2022-10-29T03:24:55.083Z,1.75
2022-10-29T03:27:21.702Z,1.85
2022-10-29T03:29:48.451Z,1.70
2022-10-29T03:32:15.096Z,1.55
2022-10-29T03:34:41.710Z,2.35
2022-10-29T03:37:08.285Z,2.53
2022-10-29T03:39:34.909Z,2.47
2022-10-29T03:42:01.534Z,2.17
2022-10-29T03:44:28.117Z,1.73
2022-10-29T03:46:54.623Z,1.95
2022-10-29T03:49:21.189Z,1.70
2022-10-29T03:51:47.702Z,1.63
2022-10-29T03:54:14.759Z,1.65
2022-10-29T03:56:41.444Z,2.45
2022-10-29T03:59:08.038Z,1.50
2022-10-29T04:01:34.615Z,2.63
2022-10-29T04:04:01.404Z,1.77
2022-10-29T04:06:27.943Z,1.83
2022-10-29T04:08:55.292Z,3.03
2022-10-29T04:11:22.619Z,1.80
2022-10-29T04:13:52.943Z,1.80
2022-10-29T04:16:20.030Z,3.30
2022-10-29T04:18:47.742Z,1.60
2022-10-29T04:29:34.243Z,1.17
2022-10-29T04:32:00.799Z,1.45
2022-10-29T04:34:27.473Z,2.17
2022-10-29T04:36:54.053Z,1.73
2022-10-29T04:39:22.607Z,2.63
2022-10-29T04:41:50.198Z,2.47
2022-10-29T04:44:16.842Z,2.50
2022-10-29T04:46:43.325Z,1.80
2022-10-29T04:49:10.023Z,2.10
2022-10-29T04:51:36.669Z,1.92
2022-10-29T04:54:03.376Z,2.35
2022-10-29T04:56:30.757Z,2.00
2022-10-29T04:58:57.445Z,2.40
2022-10-29T05:01:24.170Z,2.07
2022-10-29T05:03:55.576Z,2.17
2022-10-29T05:06:25.577Z,2.17
2022-10-29T05:08:52.283Z,1.88
2022-10-29T05:11:18.877Z,2.30
2022-10-29T05:13:45.541Z,1.87
2022-10-29T05:16:12.138Z,1.83
2022-10-29T05:18:39.734Z,3.90
2022-10-29T05:21:06.922Z,1.80
2022-10-29T05:23:33.611Z,2.33
2022-10-29T05:26:00.204Z,2.60
2022-10-29T05:28:26.742Z,1.80
2022-10-29T05:30:53.988Z,2.00
2022-10-29T05:33:23.051Z,1.80
2022-10-29T05:35:50.651Z,2.30
2022-10-29T05:38:17.749Z,1.50
2022-10-29T05:40:45.451Z,2.43
2022-10-29T05:43:13.875Z,2.07
2022-10-29T05:45:41.227Z,1.80
2022-10-29T05:48:08.445Z,3.23
2022-10-29T05:50:36.145Z,2.23
2022-10-29T05:53:05.600Z,2.20
2022-10-29T05:55:34.339Z,1.70
2022-10-29T05:58:03.201Z,2.10
2022-10-29T06:00:32.576Z,2.20
2022-10-29T06:02:59.477Z,3.03
2022-10-29T06:05:26.722Z,2.20
2022-10-29T06:08:00.841Z,1.80
2022-10-29T06:10:29.414Z,2.20
2022-10-29T06:12:56.506Z,2.97
2022-10-29T06:15:23.336Z,2.30
2022-10-29T06:17:50.636Z,2.10
2022-10-29T06:20:21.091Z,1.93
2022-10-29T06:22:47.927Z,2.30
2022-10-29T06:25:14.720Z,2.50
2022-10-29T06:27:41.455Z,1.90
2022-10-29T06:30:08.705Z,2.37
2022-10-29T06:32:35.362Z,3.97
2022-10-29T06:35:01.942Z,4.53
2022-10-29T06:37:29.772Z,4.77
2022-10-29T06:39:56.338Z,2.30
2022-10-29T06:42:22.917Z,2.40
2022-10-29T06:44:49.566Z,2.20
2022-10-29T06:47:16.144Z,1.73
2022-10-29T06:49:42.747Z,2.07
2022-10-29T06:52:09.351Z,2.13
2022-10-29T06:54:35.843Z,1.70
2022-10-29T06:57:02.356Z,2.37
2022-10-29T06:59:28.799Z,1.77
2022-10-29T07:01:55.327Z,1.90
2022-10-29T07:04:21.954Z,2.37
2022-10-29T07:06:48.601Z,1.90
2022-10-29T07:09:15.370Z,2.33
2022-10-29T07:11:42.389Z,3.13
2022-10-29T07:14:10.024Z,1.73
2022-10-29T07:16:37.098Z,2.00
2022-10-29T07:19:04.781Z,2.10
2022-10-29T07:21:31.286Z,2.05
2022-10-29T07:23:57.964Z,1.67
2022-10-29T07:26:24.766Z,2.35
2022-10-29T07:28:51.306Z,1.77
2022-10-29T07:31:17.915Z,2.17
2022-10-29T07:33:44.564Z,2.17
2022-10-29T07:36:11.134Z,1.83
2022-10-29T07:38:37.741Z,2.35
2022-10-29T07:41:04.508Z,1.70
2022-10-29T07:43:31.166Z,1.98
2022-10-29T07:45:57.701Z,1.95
2022-10-29T07:48:24.353Z,2.22
2022-10-29T07:50:51.038Z,1.40
2022-10-29T07:53:17.669Z,2.08
2022-10-29T07:55:44.371Z,2.33
2022-10-29T07:58:12.465Z,2.75
2022-10-29T08:00:40.687Z,1.65
2022-10-29T08:03:07.601Z,1.70
2022-10-29T08:05:34.143Z,2.22
2022-10-29T08:08:01.008Z,1.60
2022-10-29T08:10:29.428Z,2.55
2022-10-29T08:12:59.106Z,1.70
2022-10-29T08:15:27.822Z,1.88
2022-10-29T08:17:54.701Z,1.60
2022-10-29T08:20:22.522Z,2.05
2022-10-29T08:22:49.246Z,2.20
2022-10-29T08:25:16.909Z,1.77
2022-10-29T08:27:43.987Z,1.88
2022-10-29T08:30:12.771Z,2.35
2022-10-29T08:32:48.477Z,2.67
2022-10-29T08:35:15.422Z,1.67
2022-10-29T08:37:45.980Z,2.65
2022-10-29T08:40:20.910Z,3.40
2022-10-29T08:42:53.420Z,2.25
2022-10-29T08:45:30.055Z,2.25
2022-10-29T08:48:11.727Z,2.50
2022-10-29T08:50:43.448Z,1.95
2022-10-29T08:53:31.344Z,1.67
2022-10-29T08:56:00.346Z,2.65
2022-10-29T08:58:43.642Z,2.95
2022-10-29T09:01:12.173Z,1.85
2022-10-29T09:03:39.172Z,1.83
2022-10-29T09:06:20.759Z,1.77
2022-10-29T09:08:58.224Z,2.45
2022-10-29T09:11:46.230Z,1.70
2022-10-29T09:14:46.904Z,2.08
2022-10-29T09:17:19.187Z,2.13
2022-10-29T09:19:57.954Z,2.45
2022-10-29T09:22:33.279Z,2.38
2022-10-29T09:25:32.270Z,2.17
2022-10-29T09:28:31.061Z,2.15
2022-10-29T09:31:16.487Z,1.83
2022-10-29T09:33:49.995Z,2.50
2022-10-29T09:36:19.963Z,1.70
2022-10-29T09:38:58.628Z,2.70
2022-10-29T09:41:29.188Z,2.70
2022-10-29T09:44:17.294Z,1.88
2022-10-29T09:47:07.092Z,2.60
2022-10-29T09:49:55.792Z,2.75
2022-10-29T09:52:30.793Z,2.10
2022-10-29T09:55:00.840Z,1.98
2022-10-29T09:57:30.645Z,2.25
2022-10-29T10:00:00.515Z,2.85
2022-10-29T10:02:30.397Z,2.22
2022-10-29T10:05:04.269Z,2.85
2022-10-29T10:07:30.820Z,2.70
2022-10-29T10:10:05.759Z,3.90
2022-10-29T10:12:38.531Z,2.60
2022-10-29T10:15:17.047Z,2.20
2022-10-29T10:17:56.472Z,1.83
2022-10-29T10:20:26.063Z,2.00
2022-10-29T10:22:52.618Z,3.17
2022-10-29T10:25:40.429Z,2.17
2022-10-29T10:28:20.703Z,2.53
2022-10-29T10:31:05.961Z,2.80
2022-10-29T10:33:34.894Z,2.40
2022-10-29T10:36:07.147Z,2.85
2022-10-29T10:38:49.239Z,2.17
2022-10-29T10:41:23.522Z,2.78
2022-10-29T10:43:50.314Z,2.30
2022-10-29T10:46:25.217Z,2.05
2022-10-29T10:49:12.817Z,2.53
2022-10-29T10:51:44.353Z,1.95
2022-10-29T10:54:38.459Z,2.17
2022-10-29T10:57:11.245Z,3.20
2022-10-29T11:00:07.283Z,3.10
2022-10-29T11:02:33.787Z,2.47
2022-10-29T11:05:16.662Z,1.90
2022-10-29T11:08:01.607Z,2.38
2022-10-29T11:10:34.845Z,2.75
2022-10-29T11:13:06.473Z,1.98
2022-10-29T11:15:49.357Z,2.35
2022-10-29T11:18:37.630Z,2.72
2022-10-29T11:21:04.586Z,2.60
2022-10-29T11:23:46.582Z,2.03
2022-10-29T11:26:47.063Z,1.95
2022-10-29T11:29:22.319Z,3.17
2022-10-29T11:32:15.540Z,2.47
2022-10-29T11:35:05.600Z,2.35
2022-10-29T11:37:44.337Z,2.55
2022-10-29T11:40:51.184Z,2.00
2022-10-29T11:43:20.688Z,3.35
2022-10-29T11:46:09.136Z,2.35
2022-10-29T11:49:13.305Z,2.05
2022-10-29T11:51:51.965Z,2.55
2022-10-29T11:54:58.078Z,2.13
2022-10-29T11:57:30.440Z,3.25
2022-10-29T12:00:09.551Z,2.83
2022-10-29T12:03:17.752Z,3.70
2022-10-29T12:06:02.942Z,2.83
2022-10-29T12:08:51.044Z,2.30
2022-10-29T12:11:42.064Z,2.78
2022-10-29T12:14:25.305Z,1.80
2022-10-29T12:17:09.202Z,3.05
2022-10-29T12:19:51.961Z,1.92
2022-10-29T12:22:52.528Z,2.10
2022-10-29T12:25:31.717Z,2.33
2022-10-29T12:28:24.388Z,3.40
2022-10-29T12:30:57.040Z,2.63
2022-10-29T12:34:02.085Z,3.00
2022-10-29T12:36:35.718Z,3.15
2022-10-29T12:39:02.913Z,1.77
2022-10-29T12:41:38.996Z,2.47
2022-10-29T12:44:23.234Z,2.92
2022-10-29T12:47:03.092Z,2.45
2022-10-29T12:50:00.357Z,2.65
2022-10-29T12:52:38.050Z,1.95
2022-10-29T12:55:07.753Z,2.22
2022-10-29T12:57:35.811Z,3.13
2022-10-29T13:00:24.386Z,2.35
2022-10-29T13:02:52.416Z,3.22
2022-10-29T13:05:34.367Z,2.40
2022-10-29T13:08:03.639Z,2.03
2022-10-29T13:10:33.240Z,1.98
2022-10-29T13:12:59.834Z,2.60
2022-10-29T13:15:38.589Z,3.00
2022-10-29T13:18:18.156Z,2.38
2022-10-29T13:20:50.357Z,2.22
2022-10-29T13:23:22.852Z,2.35
2022-10-29T13:25:54.235Z,2.72
2022-10-29T13:28:20.795Z,2.50
2022-10-29T13:31:13.406Z,2.35
2022-10-29T13:33:40.203Z,2.80
2022-10-29T13:36:15.846Z,2.80
2022-10-29T13:39:04.293Z,2.67
2022-10-29T13:41:44.759Z,3.15
2022-10-29T13:44:14.683Z,2.40
2022-10-29T13:46:49.479Z,1.98
2022-10-29T13:49:32.124Z,2.90
2022-10-29T13:52:05.313Z,3.05
2022-10-29T13:54:37.797Z,2.30
2022-10-29T13:57:07.590Z,2.90
2022-10-29T13:59:45.255Z,2.67
2022-10-29T14:02:32.214Z,2.05
2022-10-29T14:05:13.339Z,2.67
2022-10-29T14:08:10.435Z,1.85
2022-10-29T14:10:47.115Z,1.85
2022-10-29T14:13:23.517Z,2.17
2022-10-29T14:16:06.581Z,1.92
2022-10-29T14:18:34.261Z,1.58
2022-10-29T14:21:02.515Z,2.45
2022-10-29T14:23:30.926Z,1.70
2022-10-29T14:26:04.166Z,1.70
2022-10-29T14:28:32.615Z,2.65
2022-10-29T14:31:07.109Z,1.95
2022-10-29T14:33:36.353Z,1.98
2022-10-29T14:36:08.237Z,2.42
2022-10-29T14:38:46.716Z,2.30
2022-10-29T14:41:15.390Z,2.65
2022-10-29T14:43:42.743Z,3.05
2022-10-29T14:46:17.065Z,2.65
2022-10-29T14:48:53.324Z,4.55
2022-10-29T14:51:21.894Z,2.65
2022-10-29T14:53:56.543Z,2.78
2022-10-29T14:56:38.678Z,3.60
2022-10-29T14:59:15.609Z,6.93
2022-10-29T15:01:56.668Z,11.07
2022-10-29T15:04:32.093Z,10.13
2022-10-29T15:07:15.650Z,7.75
2022-10-29T15:09:45.252Z,6.88
2022-10-29T15:12:24.379Z,5.47
2022-10-29T15:14:53.161Z,3.88
2022-10-29T15:17:27.598Z,3.03
2022-10-29T15:19:58.412Z,3.05
2022-10-29T15:22:30.809Z,2.70
2022-10-29T15:24:58.308Z,2.80
2022-10-29T15:27:26.192Z,2.70
2022-10-29T15:29:54.410Z,1.95
2022-10-29T15:32:21.454Z,2.33
2022-10-29T15:34:54.489Z,2.83
2022-10-29T15:37:27.031Z,3.00
2022-10-29T15:39:59.439Z,2.17
2022-10-29T15:42:34.657Z,1.85
2022-10-29T15:45:07.506Z,2.40
2022-10-29T15:47:39.187Z,2.13
2022-10-29T15:50:09.575Z,2.10
2022-10-29T15:52:51.185Z,2.22
2022-10-29T15:55:27.406Z,2.75
2022-10-29T15:57:59.516Z,2.47
2022-10-29T16:00:26.384Z,3.10
2022-10-29T16:02:55.901Z,2.50
2022-10-29T16:05:22.806Z,3.30
2022-10-29T16:07:49.503Z,3.25
2022-10-29T16:10:19.735Z,2.85
2022-10-29T16:12:48.446Z,2.55
2022-10-29T16:15:17.965Z,3.00
2022-10-29T16:17:44.592Z,2.35
2022-10-29T16:20:16.687Z,3.15
2022-10-29T16:22:44.178Z,2.67
2022-10-29T16:25:26.569Z,2.50
2022-10-29T16:27:54.089Z,2.28
2022-10-29T16:30:22.487Z,3.70
2022-10-29T16:32:50.106Z,2.55
2022-10-29T16:35:18.994Z,3.30
2022-10-29T16:37:45.556Z,2.67
2022-10-29T16:40:12.712Z,2.83
2022-10-29T16:42:39.811Z,2.78
2022-10-29T16:45:10.161Z,1.98
2022-10-29T16:47:37.228Z,1.48
2022-10-29T16:50:04.252Z,2.63
2022-10-29T16:52:32.796Z,2.53
2022-10-29T16:54:59.547Z,2.33
2022-10-29T16:57:26.523Z,2.42
2022-10-29T16:59:53.184Z,9.35
2022-10-29T17:02:19.786Z,10.82
2022-10-29T17:04:46.455Z,13.40
2022-10-29T17:07:12.953Z,9.73
2022-10-29T17:09:40.255Z,7.40
2022-10-29T17:12:07.062Z,7.57
2022-10-29T17:14:33.714Z,4.03
2022-10-29T17:17:01.854Z,3.17
2022-10-29T17:19:29.010Z,3.90
2022-10-29T17:21:58.816Z,2.70
2022-10-29T17:24:26.688Z,3.10
2022-10-29T17:26:54.202Z,3.10
2022-10-29T17:29:20.776Z,2.75
2022-10-29T17:31:47.344Z,2.60
2022-10-29T17:34:13.990Z,1.88
2022-10-29T17:36:43.356Z,2.00
2022-10-29T17:39:10.792Z,2.45
2022-10-29T17:41:37.532Z,2.08
2022-10-29T17:44:04.294Z,1.67
2022-10-29T17:46:30.839Z,2.63
2022-10-29T17:48:57.952Z,1.95
2022-10-29T17:51:24.618Z,1.83
2022-10-29T17:53:51.200Z,2.20
2022-10-29T17:56:17.751Z,2.63
2022-10-29T17:58:44.382Z,1.70
2022-10-29T18:01:11.516Z,2.35
2022-10-29T18:03:38.218Z,3.58
2022-10-29T18:06:07.255Z,3.17
2022-10-29T18:08:36.278Z,3.45
2022-10-29T18:11:03.732Z,2.42
2022-10-29T18:13:35.341Z,1.70
2022-10-29T18:16:02.534Z,1.58
2022-10-29T18:18:34.679Z,2.17
2022-10-29T18:21:12.847Z,4.30
2022-10-29T18:23:39.568Z,3.60
2022-10-29T18:26:19.002Z,1.92
2022-10-29T18:28:45.938Z,2.33
2022-10-29T18:31:12.532Z,1.75
2022-10-29T18:33:39.091Z,3.25
2022-10-29T18:36:06.034Z,1.95
2022-10-29T18:38:32.505Z,2.63
2022-10-29T18:40:58.973Z,1.83
2022-10-29T18:43:27.120Z,2.10
2022-10-29T18:46:01.266Z,1.58
2022-10-29T18:51:06.537Z,1.30
2022-10-29T18:53:34.798Z,1.38
2022-10-29T18:56:01.777Z,1.92
2022-10-29T18:58:28.356Z,1.80
2022-10-29T19:01:03.755Z,2.50
2022-10-29T19:03:30.371Z,1.55
2022-10-29T19:06:00.710Z,1.92
2022-10-29T19:08:27.424Z,2.13
2022-10-29T19:10:54.160Z,2.22
2022-10-29T19:13:20.719Z,1.83
2022-10-29T19:15:47.411Z,1.38
2022-10-29T19:18:14.062Z,1.33
2022-10-29T19:20:40.611Z,1.35
2022-10-29T19:23:07.720Z,2.38
2022-10-29T19:25:40.739Z,2.40
2022-10-29T19:28:07.345Z,1.90
2022-10-29T19:30:34.030Z,2.58
2022-10-29T19:33:05.122Z,1.80
2022-10-29T19:35:34.454Z,1.23
2022-10-29T19:38:01.159Z,1.63
2022-10-29T19:40:27.790Z,1.80
2022-10-29T19:42:54.362Z,2.35
2022-10-29T19:45:22.034Z,1.52
2022-10-29T19:47:48.615Z,2.17
2022-10-29T19:50:15.363Z,1.67
2022-10-29T19:52:42.013Z,2.25
2022-10-29T19:55:09.432Z,1.88
2022-10-29T19:57:36.444Z,1.60
2022-10-29T20:00:03.641Z,1.15
2022-10-29T20:02:30.275Z,1.90
2022-10-29T20:04:56.872Z,1.92
2022-10-29T20:07:23.395Z,1.98
2022-10-29T20:09:49.940Z,1.40
2022-10-29T20:12:16.622Z,2.03
2022-10-29T20:14:43.263Z,1.52
2022-10-29T20:17:09.770Z,2.03
2022-10-29T20:19:36.316Z,1.70
2022-10-29T20:22:03.033Z,2.17
2022-10-29T20:24:29.570Z,2.47
2022-10-29T20:26:56.026Z,1.70
2022-10-29T20:29:22.564Z,1.75
2022-10-29T20:31:49.507Z,1.63
2022-10-29T20:34:16.205Z,1.98
2022-10-29T20:36:46.268Z,1.80
2022-10-29T20:39:16.333Z,1.63
2022-10-29T20:41:43.496Z,2.13
2022-10-29T20:44:10.105Z,2.30
2022-10-29T20:46:40.885Z,1.88
2022-10-29T20:49:10.199Z,2.55
2022-10-29T20:51:36.838Z,1.40
2022-10-29T20:54:03.574Z,1.80
2022-10-29T20:56:30.377Z,1.83
2022-10-29T20:58:57.056Z,1.38
2022-10-29T21:01:24.704Z,1.80
2022-10-29T21:03:51.587Z,2.25
2022-10-29T21:06:19.222Z,2.65
2022-10-29T21:08:47.007Z,2.15
2022-10-29T21:11:14.805Z,1.65
2022-10-29T21:13:41.711Z,2.88
2022-10-29T21:16:10.779Z,2.38
2022-10-29T21:18:38.990Z,1.85
2022-10-29T21:21:05.966Z,1.85
2022-10-29T21:23:33.235Z,1.67
2022-10-29T21:26:00.273Z,1.42
2022-10-29T21:28:26.846Z,1.20
2022-10-29T21:30:53.504Z,2.58
2022-10-29T21:33:20.114Z,2.25
2022-10-29T21:35:51.495Z,1.60
2022-10-29T21:38:18.138Z,1.80
2022-10-29T21:40:44.717Z,2.03
2022-10-29T21:43:11.253Z,2.05
2022-10-29T21:45:37.836Z,1.77
2022-10-29T21:48:04.742Z,2.05
2022-10-29T21:50:31.276Z,2.15
2022-10-29T21:52:57.935Z,2.53
2022-10-29T21:55:24.687Z,1.17
2022-10-29T21:57:51.264Z,1.50
2022-10-29T22:00:18.660Z,1.60
2022-10-29T22:02:45.618Z,1.88
2022-10-29T22:05:12.360Z,1.85
2022-10-29T22:07:38.951Z,2.25
2022-10-29T22:10:06.227Z,1.70
2022-10-29T22:12:33.202Z,1.83
2022-10-29T22:14:59.790Z,1.45
2022-10-29T22:17:30.088Z,1.58
2022-10-29T22:19:57.363Z,1.83
2022-10-29T22:22:24.407Z,2.60
2022-10-29T22:24:51.003Z,2.15
2022-10-29T22:27:17.586Z,2.42
2022-10-29T22:29:44.152Z,2.17
2022-10-29T22:32:10.901Z,2.45
2022-10-29T22:34:37.518Z,2.28
2022-10-29T22:37:04.072Z,2.78
2022-10-29T22:39:30.726Z,2.03
2022-10-29T22:41:57.439Z,1.98
2022-10-29T22:44:23.971Z,1.90
2022-10-29T22:46:50.546Z,2.63
2022-10-29T22:49:17.133Z,2.40
2022-10-29T22:51:44.020Z,1.98
2022-10-29T22:54:10.587Z,2.25
2022-10-29T22:56:38.492Z,1.95
2022-10-29T22:59:06.106Z,1.75
2022-10-29T23:01:38.788Z,1.90
2022-10-29T23:04:08.853Z,1.77
2022-10-29T23:06:36.827Z,1.73
2022-10-29T23:09:03.593Z,3.00
2022-10-29T23:11:35.071Z,2.97
2022-10-29T23:14:02.865Z,1.23
2022-10-29T23:16:32.017Z,2.25
2022-10-29T23:19:01.307Z,1.90
2022-10-29T23:21:28.981Z,1.70
2022-10-29T23:23:56.626Z,1.75
2022-10-29T23:26:24.880Z,1.67
2022-10-29T23:28:51.798Z,1.48
2022-10-29T23:31:24.269Z,2.03
2022-10-29T23:33:53.562Z,2.08
2022-10-29T23:36:22.115Z,2.00
2022-10-29T23:38:54.649Z,3.28
2022-10-29T23:41:21.215Z,2.00
2022-10-29T23:43:47.851Z,2.17
2022-10-29T23:46:14.454Z,1.48
2022-10-29T23:48:40.981Z,2.03
2022-10-29T23:51:07.624Z,2.65
2022-10-29T23:53:34.414Z,1.52
2022-10-29T23:56:01.050Z,2.00
2022-10-29T23:58:28.155Z,1.50
